Terminal Aerodrome Forecast
Issued by NWS Shreveport, LA

Home | Current Version | Previous Version | Text Only | Print | Product List | Glossary On
Versions: 1 2 3 4 5 6 7 8 9 10 11 12 13 14 15 16 17 18 19 20
000
FTUS44 KSHV 181731
TAFTXK
TAF
KTXK 181731Z 1818/1918 29020G31KT P6SM SCT045 BKN280
     FM182000 31021G32KT P6SM SCT025 BKN035
     FM190000 33014G20KT P6SM FEW035 BKN280
     FM190200 33009KT P6SM SCT280
     FM190400 33006KT P6SM SKC
     FM191500 35008KT P6SM SKC=

USA.gov is the U.S. government's official web portal to all federal, state and local government web resources and services.